Relevés horaires Matro (Suisse)


Relevés horaires à Matro - Dimanche 31 Mars 2019
Heure UTC1 Température [°C] Vent [km/h] Hum. [%] Pres.4 [hPa] Visi. [Km] Nébu. [octa] Préc.5 [mm] Cond.
2m. Res. Ros. Dir.2 Vit. Moy. Raf.3
23:00 2.0 2.0 -13.0 ONO 1.9 -- 7.4 32 850(-0.1/3h) -- -- -- --
22:00 2.5 2.5 -13.5 E 3.7 -- 14.8 29 850(0.1/3h) -- -- -- --
21:00 2.4 -1.4 -12.9 SSE 14.8 -- 25.9 31 850(0.5/3h) -- -- -- --
20:00 2.8 -1.2 -13.6 SE 16.7 -- 25.9 29 850(0.3/3h) -- -- -- --
19:00 3.2 -1 -14.1 SSE 18.5 -- 25.9 27 850(0.1/3h) -- -- -- --
18:00 3.8 -0.2 -16.0 S 18.5 -- 42.6 22 850(-0.2/3h) -- -- -- --
17:00 4.4 0.5 -16.9 SSE 18.5 -- 35.2 19 850(-0.5/3h) -- -- -- --
16:00 5.3 1.2 -17.0 S 22.2 -- 37.0 18 850(-0.8/3h) -- -- -- --
15:00 5.6 1.2 -17.4 S 25.9 -- 42.6 17 850(-1.0/3h) -- -- -- --
14:00 5.9 1.6 -16.5 S 25.9 -- 38.9 18 850(-0.8/3h) -- -- -- --
13:00 4.9 1.1 -18.7 S 18.5 -- 35.2 16 850(-0.6/3h) -- -- -- --
12:00 4.6 0.5 -19.4 SSE 20.4 -- 33.3 15 850(-0.2/3h) -- -- -- --
11:00 4.9 1.7 -18.5 S 14.8 -- 27.8 16 850(0.0/3h) -- -- -- --
10:00 4.8 2.6 -14.7 SSE 9.3 -- 20.4 23 850(0.3/3h) -- -- -- --
09:00 3.4 2 -18.6 S 5.6 -- 14.8 18 850(0.2/3h) -- -- -- --
08:00 3.0 1.6 -22.6 N 5.6 -- 14.8 13 850(0.1/3h) -- -- -- --
07:00 2.2 -0.5 -25.6 NNO 9.3 -- 14.8 11 850(-0.3/3h) -- -- -- --
06:00 2.1 -0.6 -28.0 N 9.3 -- 18.5 9 850(-0.8/3h) -- -- -- --
05:00 1.5 -1.3 -23.9 N 9.3 -- 16.7 13 850(-1.3/3h) -- -- -- --
04:00 1.6 -1.2 -24.2 N 9.3 -- 13.0 13 850(-1.2/3h) -- -- -- --
03:00 2.0 2.0 -30.7 ENE 3.7 -- 13.0 7 850(-1.1/3h) -- -- -- --
03:00 2.0 2.0 -30.7 ENE 3.7 -- 13.0 7 850(-1.1/3h) -- -- -- --
03:00 2.0 2.0 -30.7 ENE 3.7 -- 13.0 7 850(-1.1/3h) -- -- -- --
03:00 2.0 2.0 -30.7 ENE 3.7 -- 13.0 7 850(-1.1/3h) -- -- -- --

1 Coordinated Universal Time. Actuellement il est 02:00 locale et 00:00 UTC.

2 Le vent souffle depuis la direction indiquée vers la direction oposée.

3 Les rafales max. sont disponible 40 min après l'heure du relevé.

4 Pour les stations d'altitude (plus de 600m) le géopotentiel du niveau le plus proche de la pression obligatoire est indiqué.

5 Les stations disposant d'un diffuseur peuvent indiquer "trace". Cela signifie que des précipitations ont touchés le sol mais que la quantité est inférieure à 0.1 mm.

Copyright

Les données affichées sur cette page sont la propriété exclusive de Météo Suisse.

Récapitulatif de la journée
Température [°C] Vent [km/h] Ensoleillement4 [h] Precipitations totale5 [mm] Pression [Hpa]
Min1 Max.2 Moy.3 Max. Min Max.
1.3 6.2 0 42.6 11 h 36 min 0 850.0 850.0

1 Température minimale relevée entre 18:00 UTC la veille et 18:00 UTC le jour donné.

2 Température maximale relevée entre 06:00 UTC le jour donné et 06:00 UTC le lendemain.

3 Vent moyen de la journée basé sur les relevés horaires.

4 Ensoleillement en heures relevé entre 06:00 UTC la veille et 06:00 UTC le jour donné.

5 Précipitations totales tombées entre 06:00 UTC la jour donné et 06:00 UTC le lendemain.

Graphiques horaires